Pealertown, Pennsylvania
Current Conditions -  °F | °C
As of 5:55 PM on Thursday 18 Dec 2014 (Local Time) from KHZL Reporting Station
Overcast Overcast  
Wind Chill: -4°   Ceiling: 1700
Heat Index:   Visibility: 10mi
Dew Point: -3°   Wind: 9mph
Humidity: 80%   Direction: 280°W
Pressure: 29.99"   Gusts: 17mph
Location:  41.1114°N, 76.3684°W
Report Text: KHZL 182255Z AUTO 28008G15KT 10SM OVC017 00/M03 A2999 RMK AO2
Loading
Personal Weather Stations






























Interactive Weather Map New forecast layout! Learn more

10-Day Weather Forecast

Advertisements
Track Severe Weather on mobile